createdAt,value
2022-08-07T00:00:09.155Z,0.00
2022-08-07T00:01:43.064Z,0.00
2022-08-07T00:02:39.938Z,0.00
2022-08-07T00:03:09.153Z,0.00
2022-08-07T00:04:09.518Z,0.00
2022-08-07T00:05:09.160Z,0.00
2022-08-07T00:06:09.046Z,0.00
2022-08-07T00:07:09.533Z,0.00
2022-08-07T00:08:09.007Z,0.00
2022-08-07T00:09:16.615Z,0.00
2022-08-07T00:10:26.953Z,0.00
2022-08-07T00:11:08.951Z,0.00
2022-08-07T00:12:08.933Z,0.00
2022-08-07T00:13:23.581Z,0.00
2022-08-07T00:14:08.897Z,0.00
2022-08-07T00:15:08.882Z,0.00
2022-08-07T00:16:08.863Z,0.00
2022-08-07T00:17:08.839Z,0.00
2022-08-07T00:18:08.822Z,0.00
2022-08-07T00:19:08.803Z,0.00
2022-08-07T00:20:08.786Z,0.00
2022-08-07T00:21:56.914Z,0.00
2022-08-07T00:22:08.748Z,0.00
2022-08-07T00:23:08.730Z,0.00
2022-08-07T00:24:08.716Z,0.00
2022-08-07T00:25:16.450Z,0.00
2022-08-07T00:26:13.141Z,0.00
2022-08-07T00:27:09.311Z,0.00
2022-08-07T00:28:08.641Z,0.00
2022-08-07T00:29:08.619Z,0.00
2022-08-07T00:30:26.632Z,0.00
2022-08-07T00:31:12.635Z,0.00
2022-08-07T00:32:08.563Z,0.00
2022-08-07T00:33:08.546Z,0.00
2022-08-07T00:34:09.276Z,0.00
2022-08-07T00:35:08.505Z,0.00
2022-08-07T00:36:08.490Z,0.00
2022-08-07T00:37:08.469Z,0.00
2022-08-07T00:38:08.453Z,0.00
2022-08-07T00:39:08.466Z,0.00
2022-08-07T00:40:08.415Z,0.00
2022-08-07T00:41:10.109Z,0.00
2022-08-07T00:42:08.377Z,0.00
2022-08-07T00:43:09.521Z,0.00
2022-08-07T00:44:08.339Z,0.00
2022-08-07T00:45:08.321Z,0.00
2022-08-07T00:46:08.300Z,0.00
2022-08-07T00:47:16.005Z,0.00
2022-08-07T00:48:10.887Z,0.00
2022-08-07T00:49:08.247Z,0.00
2022-08-07T00:50:18.944Z,0.00
2022-08-07T00:51:08.210Z,0.00
2022-08-07T00:52:08.192Z,0.00
2022-08-07T00:53:09.164Z,0.00
2022-08-07T00:54:08.150Z,0.00
2022-08-07T00:55:10.565Z,0.00
2022-08-07T00:56:13.915Z,0.00
2022-08-07T00:57:08.099Z,0.00
2022-08-07T00:58:08.078Z,0.00
2022-08-07T00:59:08.060Z,0.00
2022-08-07T01:00:08.045Z,0.00
2022-08-07T01:01:08.099Z,0.00
2022-08-07T01:02:14.148Z,0.00
2022-08-07T01:03:07.987Z,0.00
2022-08-07T01:04:07.966Z,0.00
2022-08-07T01:05:19.227Z,0.00
2022-08-07T01:06:07.929Z,0.00
2022-08-07T01:07:07.909Z,0.00
2022-08-07T01:08:08.967Z,0.00
2022-08-07T01:09:07.931Z,0.00
2022-08-07T01:10:11.126Z,0.00
2022-08-07T01:12:04.377Z,0.00
2022-08-07T01:12:28.358Z,0.00
2022-08-07T01:13:07.799Z,0.00
2022-08-07T01:14:07.779Z,0.00
2022-08-07T01:15:11.986Z,0.00
2022-08-07T01:16:07.740Z,0.00
2022-08-07T01:17:07.723Z,0.00
2022-08-07T01:18:07.701Z,0.00
2022-08-07T01:19:14.875Z,0.00
2022-08-07T01:20:08.060Z,0.00
2022-08-07T01:21:07.648Z,0.00
2022-08-07T01:22:08.837Z,0.00
2022-08-07T01:23:12.162Z,0.00
2022-08-07T01:24:07.592Z,0.00
2022-08-07T01:25:40.410Z,0.00
2022-08-07T01:26:07.551Z,0.00
2022-08-07T01:27:19.493Z,0.00
2022-08-07T01:28:07.516Z,0.00
2022-08-07T01:29:07.519Z,0.00
2022-08-07T01:30:07.477Z,0.00
2022-08-07T01:31:07.459Z,0.00
2022-08-07T01:32:13.353Z,0.00
2022-08-07T01:33:07.422Z,0.00
2022-08-07T01:34:07.402Z,0.00
2022-08-07T01:35:07.384Z,0.00
2022-08-07T01:36:07.538Z,0.00
2022-08-07T01:37:09.704Z,0.00
2022-08-07T01:38:07.330Z,0.00
2022-08-07T01:39:10.296Z,0.00
2022-08-07T01:40:07.291Z,0.00
2022-08-07T01:41:07.270Z,0.00
2022-08-07T01:42:39.982Z,0.00
2022-08-07T01:43:07.233Z,0.00
2022-08-07T01:44:07.215Z,0.00
2022-08-07T01:45:09.965Z,0.00
2022-08-07T01:46:08.105Z,0.00
2022-08-07T01:48:17.831Z,0.00
2022-08-07T01:48:19.445Z,0.00
2022-08-07T01:49:07.118Z,0.00
2022-08-07T01:50:07.098Z,0.00
2022-08-07T01:51:24.629Z,0.00
2022-08-07T01:52:07.063Z,0.00
2022-08-07T01:53:08.526Z,0.00
2022-08-07T01:54:12.266Z,0.00
2022-08-07T01:55:07.006Z,0.00
2022-08-07T01:56:06.983Z,0.00
2022-08-07T01:57:08.224Z,0.00
2022-08-07T01:58:29.099Z,0.00
2022-08-07T01:59:06.932Z,0.00
2022-08-07T02:00:12.915Z,0.00
2022-08-07T02:01:09.725Z,0.00
2022-08-07T02:02:06.881Z,0.00
2022-08-07T02:03:11.699Z,0.00
2022-08-07T02:04:06.890Z,0.00
2022-08-07T02:05:06.814Z,0.00
2022-08-07T02:06:08.915Z,0.00
2022-08-07T02:07:06.778Z,0.00
2022-08-07T02:08:06.759Z,0.00
2022-08-07T02:09:06.737Z,0.00
2022-08-07T02:10:06.718Z,0.00
2022-08-07T02:11:06.699Z,0.00
2022-08-07T02:12:06.679Z,0.00
2022-08-07T02:13:07.779Z,0.00
2022-08-07T02:14:06.640Z,0.00
2022-08-07T02:15:06.823Z,0.00
2022-08-07T02:16:07.544Z,0.00
2022-08-07T02:17:06.592Z,0.00
2022-08-07T02:18:06.689Z,0.00
2022-08-07T02:20:04.549Z,0.00
2022-08-07T02:20:09.954Z,0.00
2022-08-07T02:21:06.594Z,0.00
2022-08-07T02:22:07.883Z,0.00
2022-08-07T02:23:06.470Z,0.00
2022-08-07T02:24:06.457Z,0.00
2022-08-07T02:25:07.007Z,0.00
2022-08-07T02:26:26.721Z,0.00
2022-08-07T02:27:06.398Z,0.00
2022-08-07T02:28:06.995Z,0.00
2022-08-07T02:29:06.357Z,0.00
2022-08-07T02:30:07.439Z,0.00
2022-08-07T02:31:10.173Z,0.00
2022-08-07T02:32:06.296Z,0.00
2022-08-07T02:33:09.596Z,0.00
2022-08-07T02:34:11.166Z,0.00
2022-08-07T02:35:06.259Z,0.00
2022-08-07T02:36:30.256Z,0.00
2022-08-07T02:37:08.210Z,0.00
2022-08-07T02:38:06.179Z,0.00
2022-08-07T02:39:16.051Z,0.00
2022-08-07T02:40:29.686Z,0.00
2022-08-07T02:41:06.141Z,0.00
2022-08-07T02:42:10.326Z,0.00
2022-08-07T02:43:07.913Z,0.00
2022-08-07T02:44:06.065Z,0.00
2022-08-07T02:45:13.592Z,0.00
2022-08-07T02:46:06.031Z,0.00
2022-08-07T02:47:06.010Z,0.00
2022-08-07T02:48:10.311Z,0.00
2022-08-07T02:49:05.971Z,0.00
2022-08-07T02:50:05.948Z,0.00
2022-08-07T02:51:05.930Z,0.00
2022-08-07T02:52:05.917Z,0.00
2022-08-07T02:53:06.306Z,0.00
2022-08-07T02:54:05.869Z,0.00
2022-08-07T02:55:05.855Z,0.00
2022-08-07T02:56:11.287Z,0.00
2022-08-07T02:57:06.530Z,0.00
2022-08-07T02:58:05.794Z,0.00
2022-08-07T02:59:05.835Z,0.00
2022-08-07T03:00:11.130Z,0.00
2022-08-07T03:01:05.815Z,0.00
2022-08-07T03:02:05.750Z,0.00
2022-08-07T03:03:06.000Z,0.00
2022-08-07T03:04:07.172Z,0.00
2022-08-07T03:05:06.818Z,0.00
2022-08-07T03:06:05.637Z,0.00
2022-08-07T03:07:10.419Z,0.00
2022-08-07T03:08:08.220Z,0.00
2022-08-07T03:09:05.582Z,0.00
2022-08-07T03:10:05.569Z,0.00
2022-08-07T03:11:05.543Z,0.00
2022-08-07T03:12:05.523Z,0.00
2022-08-07T03:13:05.504Z,0.00
2022-08-07T03:14:05.483Z,0.00
2022-08-07T03:15:07.785Z,0.00
2022-08-07T03:16:05.446Z,0.00
2022-08-07T03:17:05.427Z,0.00
2022-08-07T03:18:05.405Z,0.00
2022-08-07T03:19:05.387Z,0.00
2022-08-07T03:20:05.366Z,0.00
2022-08-07T03:21:08.851Z,0.00
2022-08-07T03:22:05.327Z,0.00
2022-08-07T03:23:05.311Z,0.00
2022-08-07T03:24:17.944Z,0.00
2022-08-07T03:25:05.288Z,0.00
2022-08-07T03:26:05.251Z,0.00
2022-08-07T03:27:05.231Z,0.00
2022-08-07T03:28:09.609Z,0.00
2022-08-07T03:29:05.193Z,0.00
2022-08-07T03:30:05.175Z,0.00
2022-08-07T03:31:05.154Z,0.00
2022-08-07T03:32:05.134Z,0.00
2022-08-07T03:33:05.116Z,0.00
2022-08-07T03:34:05.095Z,0.00
2022-08-07T03:35:17.472Z,0.00
2022-08-07T03:36:05.057Z,0.00
2022-08-07T03:37:12.284Z,0.00
2022-08-07T03:38:05.019Z,0.00
2022-08-07T03:39:05.615Z,0.00
2022-08-07T03:40:14.808Z,0.00
2022-08-07T03:41:04.983Z,0.00
2022-08-07T03:42:04.939Z,4.00
2022-08-07T03:43:04.924Z,4.00
2022-08-07T03:44:04.901Z,0.00
2022-08-07T03:45:04.883Z,0.00
2022-08-07T03:46:10.375Z,0.00
2022-08-07T03:47:13.361Z,4.00
2022-08-07T03:48:04.823Z,4.00
2022-08-07T03:49:04.807Z,0.00
2022-08-07T03:50:04.785Z,4.00
2022-08-07T03:51:04.772Z,4.00
2022-08-07T03:52:04.762Z,4.00
2022-08-07T03:53:04.730Z,4.00
2022-08-07T03:54:33.380Z,4.00
2022-08-07T03:55:07.440Z,4.00
2022-08-07T03:56:05.170Z,8.00
2022-08-07T03:57:07.388Z,4.00
2022-08-07T03:58:34.485Z,8.00
2022-08-07T03:59:09.242Z,8.00
2022-08-07T04:00:04.636Z,8.00
2022-08-07T04:01:04.627Z,8.00
2022-08-07T04:02:04.550Z,8.00
2022-08-07T04:03:05.203Z,12.00
2022-08-07T04:04:04.969Z,12.00
2022-08-07T04:05:04.495Z,12.00
2022-08-07T04:06:04.472Z,16.00
2022-08-07T04:07:16.777Z,12.00
2022-08-07T04:08:04.433Z,16.00
2022-08-07T04:09:04.417Z,16.00
2022-08-07T04:10:04.393Z,20.00
2022-08-07T04:11:15.009Z,20.00
2022-08-07T04:12:27.804Z,24.00
2022-08-07T04:13:04.338Z,20.00
2022-08-07T04:14:10.393Z,20.00
2022-08-07T04:15:04.955Z,24.00
2022-08-07T04:16:04.288Z,24.00
2022-08-07T04:17:04.262Z,24.00
2022-08-07T04:18:56.469Z,28.00
2022-08-07T04:19:12.305Z,28.00
2022-08-07T04:20:04.201Z,32.00
2022-08-07T04:21:04.180Z,32.00
2022-08-07T04:22:06.145Z,32.00
2022-08-07T04:23:06.265Z,36.00
2022-08-07T04:24:07.854Z,32.00
2022-08-07T04:25:08.900Z,36.00
2022-08-07T04:26:04.082Z,36.00
2022-08-07T04:27:04.063Z,40.00
2022-08-07T04:28:04.043Z,40.00
2022-08-07T04:29:04.022Z,44.00
2022-08-07T04:30:04.676Z,44.00
2022-08-07T04:31:03.986Z,48.00
2022-08-07T04:32:10.806Z,44.00
2022-08-07T04:33:07.424Z,48.00
2022-08-07T04:34:03.926Z,48.00
2022-08-07T04:35:05.769Z,52.00
2022-08-07T04:36:06.414Z,52.00
2022-08-07T04:37:03.870Z,56.00
2022-08-07T04:38:06.922Z,56.00
2022-08-07T04:39:03.855Z,56.00
2022-08-07T04:40:03.809Z,56.00
2022-08-07T04:41:03.788Z,60.00
2022-08-07T04:42:03.769Z,60.00
2022-08-07T04:43:03.890Z,64.00
2022-08-07T04:44:12.515Z,64.00
2022-08-07T04:45:08.239Z,68.00
2022-08-07T04:46:03.690Z,68.00
2022-08-07T04:47:07.879Z,68.00
2022-08-07T04:48:07.732Z,68.00
2022-08-07T04:49:17.971Z,72.00
2022-08-07T04:50:04.825Z,72.00
2022-08-07T04:51:03.592Z,76.00
2022-08-07T04:52:03.570Z,76.00
2022-08-07T04:53:03.765Z,76.00
2022-08-07T04:54:06.485Z,80.00
2022-08-07T04:55:15.162Z,76.00
2022-08-07T04:58:09.996Z,84.00
2022-08-07T04:58:12.229Z,80.00
2022-08-07T04:58:12.969Z,80.00
2022-08-07T05:00:07.996Z,84.00
2022-08-07T05:00:11.477Z,88.00
2022-08-07T05:01:03.437Z,84.00
2022-08-07T05:02:03.378Z,84.00
2022-08-07T05:03:03.466Z,88.00
2022-08-07T05:04:08.630Z,88.00
2022-08-07T05:05:03.317Z,92.00
2022-08-07T05:06:03.297Z,92.00
2022-08-07T05:07:19.678Z,92.00
2022-08-07T05:08:03.258Z,96.00
2022-08-07T05:09:03.239Z,92.00
2022-08-07T05:10:04.514Z,96.00
2022-08-07T05:11:03.202Z,96.00
2022-08-07T05:12:03.179Z,96.00
2022-08-07T05:14:44.827Z,100.00
2022-08-07T05:14:55.369Z,100.00
2022-08-07T05:15:04.060Z,100.00
2022-08-07T05:16:04.714Z,104.00
2022-08-07T05:17:05.896Z,104.00
2022-08-07T05:18:09.018Z,104.00
2022-08-07T05:19:03.040Z,108.00
2022-08-07T05:20:06.551Z,108.00
2022-08-07T05:21:04.028Z,112.00
2022-08-07T05:22:04.779Z,112.00
2022-08-07T05:23:02.963Z,112.00
2022-08-07T05:24:02.946Z,116.00
2022-08-07T05:25:02.921Z,120.00
2022-08-07T05:26:15.225Z,120.00
2022-08-07T05:27:02.884Z,124.00
2022-08-07T05:28:20.628Z,124.00
2022-08-07T05:29:04.283Z,128.00
2022-08-07T05:30:02.824Z,128.00
2022-08-07T05:31:03.664Z,128.00
2022-08-07T05:32:02.786Z,132.00
2022-08-07T05:33:03.293Z,132.00
2022-08-07T05:34:05.520Z,136.00
2022-08-07T05:35:02.730Z,140.00
2022-08-07T05:36:02.708Z,140.00
2022-08-07T05:37:02.688Z,144.00
2022-08-07T05:38:08.988Z,148.00
2022-08-07T05:40:05.328Z,148.00
2022-08-07T05:40:05.731Z,148.00
2022-08-07T05:41:12.433Z,152.00
2022-08-07T05:42:07.359Z,156.00
2022-08-07T05:43:02.570Z,164.00
2022-08-07T05:44:11.754Z,168.00
2022-08-07T05:45:14.514Z,180.00
2022-08-07T05:46:02.584Z,188.00
2022-08-07T05:47:11.748Z,184.00
2022-08-07T05:48:03.288Z,168.00
2022-08-07T05:49:11.733Z,172.00
2022-08-07T05:50:02.504Z,180.00
2022-08-07T05:51:03.421Z,192.00
2022-08-07T05:52:02.394Z,188.00
2022-08-07T05:53:02.373Z,176.00
2022-08-07T05:54:13.678Z,172.00
2022-08-07T05:55:10.180Z,172.00
2022-08-07T05:56:05.653Z,168.00
2022-08-07T05:57:02.296Z,168.00
2022-08-07T05:58:02.280Z,168.00
2022-08-07T05:59:02.260Z,168.00
2022-08-07T06:00:02.250Z,164.00
2022-08-07T06:01:05.046Z,164.00
2022-08-07T06:02:02.298Z,164.00
2022-08-07T06:03:02.187Z,164.00
2022-08-07T06:04:02.164Z,164.00
2022-08-07T06:05:03.392Z,168.00
2022-08-07T06:06:02.128Z,168.00
2022-08-07T06:07:03.856Z,172.00
2022-08-07T06:08:13.791Z,172.00
2022-08-07T06:09:04.696Z,172.00
2022-08-07T06:10:05.637Z,172.00
2022-08-07T06:11:03.769Z,172.00
2022-08-07T06:12:02.011Z,172.00
2022-08-07T06:13:02.219Z,176.00
2022-08-07T06:14:12.853Z,176.00
2022-08-07T06:15:05.323Z,176.00
2022-08-07T06:16:01.937Z,176.00
2022-08-07T06:17:01.912Z,180.00
2022-08-07T06:18:01.896Z,180.00
2022-08-07T06:19:01.876Z,184.00
2022-08-07T06:20:04.030Z,180.00
2022-08-07T06:22:15.203Z,184.00
2022-08-07T06:22:16.075Z,184.00
2022-08-07T06:23:45.724Z,188.00
2022-08-07T06:24:45.475Z,188.00
2022-08-07T06:25:02.860Z,184.00
2022-08-07T06:26:02.050Z,184.00
2022-08-07T06:27:03.770Z,188.00
2022-08-07T06:28:02.855Z,188.00
2022-08-07T06:29:01.686Z,192.00
2022-08-07T06:30:01.663Z,188.00
2022-08-07T06:31:01.644Z,192.00
2022-08-07T06:32:01.664Z,192.00
2022-08-07T06:33:01.605Z,192.00
2022-08-07T06:34:01.590Z,196.00
2022-08-07T06:35:01.569Z,196.00
2022-08-07T06:36:13.581Z,200.00
2022-08-07T06:37:02.714Z,204.00
2022-08-07T06:38:01.510Z,204.00
2022-08-07T06:40:13.719Z,204.00
2022-08-07T06:40:16.739Z,204.00
2022-08-07T06:41:01.516Z,204.00
2022-08-07T06:42:03.399Z,204.00
2022-08-07T06:43:01.418Z,208.00
2022-08-07T06:44:10.762Z,208.00
2022-08-07T06:45:01.377Z,212.00
2022-08-07T06:46:01.362Z,208.00
2022-08-07T06:47:10.222Z,212.00
2022-08-07T06:48:01.322Z,216.00
2022-08-07T06:49:04.348Z,212.00
2022-08-07T06:50:01.285Z,216.00
2022-08-07T06:51:08.153Z,212.00
2022-08-07T06:52:07.229Z,216.00
2022-08-07T06:53:04.117Z,220.00
2022-08-07T06:55:29.607Z,216.00
2022-08-07T06:55:32.196Z,220.00
2022-08-07T06:56:02.126Z,224.00
2022-08-07T06:57:01.150Z,220.00
2022-08-07T06:58:01.134Z,220.00
2022-08-07T07:00:13.187Z,220.00
2022-08-07T07:00:16.874Z,224.00
2022-08-07T07:01:01.074Z,224.00
2022-08-07T07:02:01.130Z,224.00
2022-08-07T07:03:08.678Z,224.00
2022-08-07T07:04:08.280Z,224.00
2022-08-07T07:05:01.120Z,228.00
2022-08-07T07:06:04.355Z,228.00
2022-08-07T07:07:01.871Z,228.00
2022-08-07T07:08:06.410Z,228.00
2022-08-07T07:09:00.924Z,228.00
2022-08-07T07:10:00.919Z,228.00
2022-08-07T07:11:01.160Z,232.00
2022-08-07T07:12:08.780Z,232.00
2022-08-07T07:13:00.857Z,232.00
2022-08-07T07:14:02.277Z,232.00
2022-08-07T07:15:00.811Z,232.00
2022-08-07T07:16:00.795Z,232.00
2022-08-07T07:17:00.773Z,232.00
2022-08-07T07:18:00.764Z,232.00
2022-08-07T07:19:00.738Z,232.00
2022-08-07T07:20:00.719Z,236.00
2022-08-07T07:21:00.701Z,236.00
2022-08-07T07:22:04.786Z,236.00
2022-08-07T07:24:08.191Z,236.00
2022-08-07T07:24:11.129Z,236.00
2022-08-07T07:25:14.037Z,240.00
2022-08-07T07:26:35.841Z,236.00
2022-08-07T07:27:00.594Z,236.00
2022-08-07T07:28:03.026Z,236.00
2022-08-07T07:29:56.217Z,236.00
2022-08-07T07:30:09.783Z,236.00
2022-08-07T07:31:00.511Z,240.00
2022-08-07T07:32:00.498Z,236.00
2022-08-07T07:33:00.476Z,240.00
2022-08-07T07:34:00.458Z,240.00
2022-08-07T07:35:00.445Z,240.00
2022-08-07T07:36:04.965Z,240.00
2022-08-07T07:37:14.273Z,240.00
2022-08-07T07:38:02.593Z,240.00
2022-08-07T07:39:00.411Z,244.00
2022-08-07T07:40:00.353Z,244.00
2022-08-07T07:41:02.181Z,244.00
2022-08-07T07:42:13.385Z,244.00
2022-08-07T07:43:11.698Z,244.00
2022-08-07T07:44:16.775Z,248.00
2022-08-07T07:45:00.264Z,252.00
2022-08-07T07:46:37.490Z,252.00
2022-08-07T07:47:11.948Z,252.00
2022-08-07T07:48:00.201Z,252.00
2022-08-07T07:49:08.888Z,252.00
2022-08-07T07:50:34.581Z,256.00
2022-08-07T07:51:00.144Z,256.00
2022-08-07T07:52:00.296Z,256.00
2022-08-07T07:53:00.803Z,260.00
2022-08-07T07:54:00.099Z,260.00
2022-08-07T07:55:00.070Z,260.00
2022-08-07T07:56:01.017Z,264.00
2022-08-07T07:57:00.033Z,264.00
2022-08-07T07:58:00.075Z,264.00
2022-08-07T07:59:00.002Z,264.00
2022-08-07T07:59:59.988Z,264.00
2022-08-07T08:00:59.961Z,268.00
2022-08-07T08:02:05.308Z,268.00
2022-08-07T08:03:01.207Z,272.00
2022-08-07T08:04:09.642Z,272.00
2022-08-07T08:04:59.889Z,272.00
2022-08-07T08:05:59.872Z,276.00
2022-08-07T08:07:00.658Z,276.00
2022-08-07T08:08:01.358Z,276.00
2022-08-07T08:09:00.379Z,276.00
2022-08-07T08:10:04.998Z,276.00
2022-08-07T08:10:59.779Z,280.00
2022-08-07T08:12:03.943Z,284.00
2022-08-07T08:13:00.474Z,280.00
2022-08-07T08:13:59.725Z,280.00
2022-08-07T08:14:59.748Z,280.00
2022-08-07T08:16:00.843Z,284.00
2022-08-07T08:17:56.418Z,284.00
2022-08-07T08:17:59.892Z,284.00
2022-08-07T08:19:00.432Z,284.00
2022-08-07T08:20:18.222Z,288.00
2022-08-07T08:20:59.597Z,292.00
2022-08-07T08:22:03.288Z,288.00
2022-08-07T08:22:59.560Z,292.00
2022-08-07T08:23:59.550Z,292.00
2022-08-07T08:25:18.210Z,292.00
2022-08-07T08:26:03.380Z,292.00
2022-08-07T08:26:59.490Z,296.00
2022-08-07T08:28:01.946Z,300.00
2022-08-07T08:28:59.456Z,300.00
2022-08-07T08:29:59.437Z,300.00
2022-08-07T08:30:59.446Z,300.00
2022-08-07T08:32:18.274Z,304.00
2022-08-07T08:32:59.479Z,308.00
2022-08-07T08:33:59.369Z,308.00
2022-08-07T08:34:59.345Z,308.00
2022-08-07T08:35:59.331Z,308.00
2022-08-07T08:36:59.312Z,308.00
2022-08-07T08:38:03.604Z,308.00
2022-08-07T08:38:59.337Z,312.00
2022-08-07T08:39:59.346Z,308.00
2022-08-07T08:40:59.241Z,312.00
2022-08-07T08:41:59.490Z,312.00
2022-08-07T08:42:59.204Z,316.00
2022-08-07T08:43:59.515Z,316.00
2022-08-07T08:44:59.171Z,320.00
2022-08-07T08:46:01.038Z,320.00
2022-08-07T08:46:59.133Z,316.00
2022-08-07T08:47:59.122Z,300.00
2022-08-07T08:48:59.095Z,320.00
2022-08-07T08:50:04.969Z,324.00
2022-08-07T08:50:59.064Z,328.00
2022-08-07T08:52:14.312Z,332.00
2022-08-07T08:52:59.027Z,340.00
2022-08-07T08:53:59.964Z,344.00
2022-08-07T08:54:58.993Z,344.00
2022-08-07T08:55:59.292Z,352.00
2022-08-07T08:56:58.955Z,352.00
2022-08-07T08:57:58.940Z,352.00
2022-08-07T08:58:58.978Z,352.00
2022-08-07T08:59:58.904Z,352.00
2022-08-07T09:00:58.922Z,356.00
2022-08-07T09:01:59.493Z,356.00
2022-08-07T09:02:58.963Z,360.00
2022-08-07T09:03:58.842Z,360.00
2022-08-07T09:04:59.003Z,360.00
2022-08-07T09:05:58.797Z,364.00
2022-08-07T09:06:58.778Z,376.00
2022-08-07T09:07:58.827Z,384.00
2022-08-07T09:08:58.745Z,392.00
2022-08-07T09:09:58.729Z,396.00
2022-08-07T09:10:58.710Z,392.00
2022-08-07T09:12:08.895Z,400.00
2022-08-07T09:12:58.675Z,408.00
2022-08-07T09:13:58.656Z,408.00
2022-08-07T09:14:59.714Z,412.00
2022-08-07T09:16:22.377Z,412.00
2022-08-07T09:16:58.615Z,420.00
2022-08-07T09:18:07.213Z,416.00
2022-08-07T09:18:59.025Z,416.00
2022-08-07T09:19:59.169Z,412.00
2022-08-07T09:21:01.102Z,412.00
2022-08-07T09:22:40.029Z,424.00
2022-08-07T09:24:30.451Z,532.00
2022-08-07T09:24:34.079Z,456.00
2022-08-07T09:25:00.554Z,612.00
2022-08-07T09:25:58.448Z,588.00
2022-08-07T09:26:58.434Z,524.00
2022-08-07T09:28:01.224Z,532.00
2022-08-07T09:30:03.805Z,572.00
2022-08-07T09:30:04.150Z,560.00
2022-08-07T09:30:58.411Z,588.00
2022-08-07T09:31:58.344Z,620.00
2022-08-07T09:32:58.328Z,608.00
2022-08-07T09:33:58.389Z,536.00
2022-08-07T09:34:58.293Z,500.00
2022-08-07T09:36:05.103Z,488.00
2022-08-07T09:36:58.259Z,488.00
2022-08-07T09:37:58.241Z,496.00
2022-08-07T09:38:58.534Z,500.00
2022-08-07T09:39:59.504Z,512.00
2022-08-07T09:40:58.187Z,520.00
2022-08-07T09:42:03.104Z,532.00
2022-08-07T09:42:58.154Z,544.00
2022-08-07T09:44:05.545Z,552.00
2022-08-07T09:47:23.554Z,568.00
2022-08-07T09:47:49.988Z,612.00
2022-08-07T09:47:51.179Z,592.00
2022-08-07T09:48:01.770Z,628.00
2022-08-07T09:50:01.083Z,660.00
2022-08-07T09:50:04.224Z,704.00
2022-08-07T09:50:59.525Z,732.00
2022-08-07T09:52:16.788Z,748.00
2022-08-07T09:52:58.015Z,796.00
2022-08-07T09:54:02.310Z,968.00
2022-08-07T09:54:57.946Z,1092.00
2022-08-07T09:56:04.133Z,1112.00
2022-08-07T09:56:58.008Z,1132.00
2022-08-07T09:57:57.925Z,1160.00
2022-08-07T09:58:57.880Z,1168.00
2022-08-07T10:00:01.417Z,1180.00
2022-08-07T10:00:57.846Z,1248.00
2022-08-07T10:01:57.911Z,1312.00
2022-08-07T10:02:57.815Z,1360.00
2022-08-07T10:04:05.293Z,1392.00
2022-08-07T10:04:57.811Z,1428.00
2022-08-07T10:06:01.276Z,1396.00
2022-08-07T10:06:57.747Z,1356.00
2022-08-07T10:07:58.248Z,1384.00
2022-08-07T10:08:57.730Z,1328.00
2022-08-07T10:10:00.683Z,1264.00
2022-08-07T10:11:59.737Z,1196.00
2022-08-07T10:12:01.070Z,1200.00
2022-08-07T10:12:57.649Z,1288.00
2022-08-07T10:14:01.981Z,1300.00
2022-08-07T10:14:57.612Z,1324.00
2022-08-07T10:15:57.594Z,1208.00
2022-08-07T10:16:59.530Z,1108.00
2022-08-07T10:18:00.785Z,1052.00
2022-08-07T10:18:57.548Z,1044.00
2022-08-07T10:19:57.532Z,1080.00
2022-08-07T10:20:57.517Z,1120.00
2022-08-07T10:22:14.331Z,1092.00
2022-08-07T10:22:57.483Z,1088.00
2022-08-07T10:24:05.847Z,1088.00
2022-08-07T10:24:57.610Z,1068.00
2022-08-07T10:25:57.435Z,1068.00
2022-08-07T10:26:57.422Z,1056.00
2022-08-07T10:27:57.417Z,992.00
2022-08-07T10:28:57.390Z,984.00
2022-08-07T10:29:57.373Z,1012.00
2022-08-07T10:30:57.357Z,1036.00
2022-08-07T10:31:57.341Z,1076.00
2022-08-07T10:32:59.671Z,1092.00
2022-08-07T10:34:06.083Z,1132.00
2022-08-07T10:34:57.296Z,1076.00
2022-08-07T10:36:10.874Z,1076.00
2022-08-07T10:36:57.265Z,1048.00
2022-08-07T10:38:10.052Z,1032.00
2022-08-07T10:38:57.236Z,1000.00
2022-08-07T10:40:03.251Z,992.00
2022-08-07T10:40:57.204Z,968.00
2022-08-07T10:42:01.635Z,972.00
2022-08-07T10:42:57.176Z,952.00
2022-08-07T10:44:02.351Z,916.00
2022-08-07T10:44:57.142Z,900.00
2022-08-07T10:45:58.679Z,944.00
2022-08-07T10:46:57.113Z,924.00
2022-08-07T10:48:03.106Z,1136.00
2022-08-07T10:48:57.084Z,1172.00
2022-08-07T10:49:57.068Z,1128.00
2022-08-07T10:50:57.228Z,1088.00
2022-08-07T10:52:01.825Z,1116.00
2022-08-07T10:52:57.022Z,1080.00
2022-08-07T10:54:00.123Z,1216.00
2022-08-07T10:55:01.433Z,1352.00
2022-08-07T10:55:56.976Z,1104.00
2022-08-07T10:56:56.962Z,1024.00
2022-08-07T10:57:56.947Z,1008.00
2022-08-07T10:58:59.811Z,960.00
2022-08-07T10:59:56.918Z,968.00
2022-08-07T11:00:57.043Z,1036.00
2022-08-07T11:02:05.223Z,1116.00
2022-08-07T11:02:56.910Z,1216.00
2022-08-07T11:04:11.035Z,1176.00
2022-08-07T11:04:56.848Z,1116.00
2022-08-07T11:05:56.831Z,1108.00
2022-08-07T11:06:56.826Z,1072.00
2022-08-07T11:08:01.247Z,956.00
2022-08-07T11:08:56.786Z,920.00
2022-08-07T11:10:09.745Z,904.00
2022-08-07T11:10:59.951Z,820.00
2022-08-07T11:11:59.154Z,828.00
2022-08-07T11:13:01.629Z,872.00
2022-08-07T11:14:43.606Z,752.00
2022-08-07T11:15:00.577Z,688.00
2022-08-07T11:15:56.683Z,684.00
2022-08-07T11:17:01.893Z,744.00
2022-08-07T11:17:56.655Z,820.00
2022-08-07T11:18:56.644Z,756.00
2022-08-07T11:19:56.623Z,600.00
2022-08-07T11:20:56.610Z,492.00
2022-08-07T11:21:56.595Z,524.00
2022-08-07T11:22:56.641Z,588.00
2022-08-07T11:23:56.566Z,504.00
2022-08-07T11:24:56.555Z,504.00
2022-08-07T11:25:56.535Z,492.00
2022-08-07T11:26:56.522Z,420.00
2022-08-07T11:28:03.124Z,488.00
2022-08-07T11:28:56.492Z,484.00
2022-08-07T11:30:17.597Z,468.00
2022-08-07T11:30:56.461Z,476.00
2022-08-07T11:31:56.449Z,440.00
2022-08-07T11:32:56.433Z,420.00
2022-08-07T11:34:00.452Z,452.00
2022-08-07T11:34:56.403Z,580.00
2022-08-07T11:35:59.473Z,520.00
2022-08-07T11:36:56.633Z,500.00
2022-08-07T11:37:57.837Z,508.00
2022-08-07T11:38:56.468Z,584.00
2022-08-07T11:40:01.366Z,512.00
2022-08-07T11:40:56.310Z,488.00
2022-08-07T11:42:01.747Z,512.00
2022-08-07T11:42:56.283Z,496.00
2022-08-07T11:44:12.270Z,500.00
2022-08-07T11:44:57.670Z,552.00
2022-08-07T11:45:56.234Z,596.00
2022-08-07T11:46:56.220Z,620.00
2022-08-07T11:47:59.480Z,668.00
2022-08-07T11:49:51.563Z,716.00
2022-08-07T11:50:31.072Z,688.00
2022-08-07T11:50:57.226Z,716.00
2022-08-07T11:51:56.141Z,752.00
2022-08-07T11:52:56.127Z,744.00
2022-08-07T11:54:01.360Z,708.00
2022-08-07T11:54:56.098Z,692.00
2022-08-07T11:56:09.742Z,640.00
2022-08-07T11:56:56.299Z,580.00
2022-08-07T11:58:00.640Z,536.00
2022-08-07T11:58:56.079Z,536.00
2022-08-07T12:00:10.859Z,528.00
2022-08-07T12:01:02.631Z,476.00
2022-08-07T12:02:00.436Z,480.00
2022-08-07T12:02:56.043Z,492.00
2022-08-07T12:03:55.985Z,484.00
2022-08-07T12:04:55.955Z,468.00
2022-08-07T12:05:58.259Z,480.00
2022-08-07T12:07:00.985Z,484.00
2022-08-07T12:08:03.515Z,496.00
2022-08-07T12:08:55.883Z,500.00
2022-08-07T12:09:55.865Z,500.00
2022-08-07T12:11:08.109Z,504.00
2022-08-07T12:12:09.094Z,500.00
2022-08-07T12:12:55.821Z,480.00
2022-08-07T12:13:55.802Z,480.00
2022-08-07T12:15:00.460Z,468.00
2022-08-07T12:16:05.724Z,476.00
2022-08-07T12:16:55.761Z,480.00
2022-08-07T12:17:58.846Z,472.00
2022-08-07T12:18:56.300Z,456.00
2022-08-07T12:19:56.904Z,444.00
2022-08-07T12:20:55.696Z,388.00
2022-08-07T12:22:37.521Z,400.00
2022-08-07T12:22:56.575Z,436.00
2022-08-07T12:24:07.345Z,588.00
2022-08-07T12:25:02.267Z,620.00
2022-08-07T12:26:22.361Z,644.00
2022-08-07T12:26:55.606Z,540.00
2022-08-07T12:28:08.532Z,600.00
2022-08-07T12:28:55.574Z,612.00
2022-08-07T12:29:55.558Z,596.00
2022-08-07T12:30:55.585Z,596.00
2022-08-07T12:32:04.025Z,608.00
2022-08-07T12:32:55.635Z,652.00
2022-08-07T12:33:56.443Z,612.00
2022-08-07T12:34:55.936Z,584.00
2022-08-07T12:35:57.681Z,604.00
2022-08-07T12:36:55.473Z,684.00
2022-08-07T12:38:11.289Z,752.00
2022-08-07T12:38:57.544Z,588.00
2022-08-07T12:39:55.515Z,576.00
2022-08-07T12:40:55.438Z,648.00
2022-08-07T12:41:55.371Z,832.00
2022-08-07T12:42:57.408Z,808.00